sensor_id;sensor_type;location;lat;lon;timestamp;P1;durP1;ratioP1;P2;durP2;ratioP2
33076;SDS011;67066;51.964;5.924;2024-03-07T00:02:20;79.07;;;33.35;;
33076;SDS011;67066;51.964;5.924;2024-03-07T00:04:46;75.38;;;34.28;;
33076;SDS011;67066;51.964;5.924;2024-03-07T00:07:13;71.93;;;34.30;;
33076;SDS011;67066;51.964;5.924;2024-03-07T00:09:39;78.53;;;35.47;;
33076;SDS011;67066;51.964;5.924;2024-03-07T00:12:05;64.60;;;33.08;;
33076;SDS011;67066;51.964;5.924;2024-03-07T00:14:33;91.43;;;35.15;;
33076;SDS011;67066;51.964;5.924;2024-03-07T00:17:01;73.88;;;32.08;;
33076;SDS011;67066;51.964;5.924;2024-03-07T00:19:28;74.22;;;34.70;;
33076;SDS011;67066;51.964;5.924;2024-03-07T00:21:55;75.68;;;33.47;;
33076;SDS011;67066;51.964;5.924;2024-03-07T00:24:22;77.10;;;34.72;;
33076;SDS011;67066;51.964;5.924;2024-03-07T00:26:48;73.25;;;36.30;;
33076;SDS011;67066;51.964;5.924;2024-03-07T00:29:19;84.95;;;36.72;;
33076;SDS011;67066;51.964;5.924;2024-03-07T00:31:46;85.07;;;38.80;;
33076;SDS011;67066;51.964;5.924;2024-03-07T00:34:13;71.13;;;36.33;;
33076;SDS011;67066;51.964;5.924;2024-03-07T00:36:44;77.53;;;36.22;;
33076;SDS011;67066;51.964;5.924;2024-03-07T00:39:11;85.55;;;36.92;;
33076;SDS011;67066;51.964;5.924;2024-03-07T00:41:38;77.82;;;37.17;;
33076;SDS011;67066;51.964;5.924;2024-03-07T00:44:05;77.80;;;37.65;;
33076;SDS011;67066;51.964;5.924;2024-03-07T00:46:32;79.75;;;36.95;;
33076;SDS011;67066;51.964;5.924;2024-03-07T00:48:58;85.20;;;36.25;;
33076;SDS011;67066;51.964;5.924;2024-03-07T00:51:24;81.30;;;38.45;;
33076;SDS011;67066;51.964;5.924;2024-03-07T00:53:50;83.38;;;39.20;;
33076;SDS011;67066;51.964;5.924;2024-03-07T00:56:16;91.63;;;38.92;;
33076;SDS011;67066;51.964;5.924;2024-03-07T00:58:42;81.55;;;38.80;;
33076;SDS011;67066;51.964;5.924;2024-03-07T01:01:08;79.05;;;37.65;;
33076;SDS011;67066;51.964;5.924;2024-03-07T01:03:36;72.22;;;36.15;;
33076;SDS011;67066;51.964;5.924;2024-03-07T01:06:03;82.78;;;37.92;;
33076;SDS011;67066;51.964;5.924;2024-03-07T01:08:29;98.10;;;39.45;;
33076;SDS011;67066;51.964;5.924;2024-03-07T01:10:58;79.60;;;39.03;;
33076;SDS011;67066;51.964;5.924;2024-03-07T01:13:24;76.57;;;35.88;;
33076;SDS011;67066;51.964;5.924;2024-03-07T01:15:50;87.15;;;39.30;;
33076;SDS011;67066;51.964;5.924;2024-03-07T01:18:17;83.97;;;36.95;;
33076;SDS011;67066;51.964;5.924;2024-03-07T01:20:43;82.88;;;36.85;;
33076;SDS011;67066;51.964;5.924;2024-03-07T01:23:09;87.55;;;38.30;;
33076;SDS011;67066;51.964;5.924;2024-03-07T01:25:36;85.47;;;38.17;;
33076;SDS011;67066;51.964;5.924;2024-03-07T01:28:02;86.22;;;37.05;;
33076;SDS011;67066;51.964;5.924;2024-03-07T01:30:29;74.53;;;37.88;;
33076;SDS011;67066;51.964;5.924;2024-03-07T01:32:55;77.07;;;36.85;;
33076;SDS011;67066;51.964;5.924;2024-03-07T01:35:22;81.25;;;37.60;;
33076;SDS011;67066;51.964;5.924;2024-03-07T01:37:48;72.38;;;36.92;;
33076;SDS011;67066;51.964;5.924;2024-03-07T01:40:14;79.65;;;38.08;;
33076;SDS011;67066;51.964;5.924;2024-03-07T01:42:40;87.15;;;39.28;;
33076;SDS011;67066;51.964;5.924;2024-03-07T01:45:06;72.72;;;36.05;;
33076;SDS011;67066;51.964;5.924;2024-03-07T01:47:36;78.35;;;36.95;;
33076;SDS011;67066;51.964;5.924;2024-03-07T01:50:02;99.13;;;38.33;;
33076;SDS011;67066;51.964;5.924;2024-03-07T01:52:29;91.57;;;38.72;;
33076;SDS011;67066;51.964;5.924;2024-03-07T01:54:56;85.20;;;38.10;;
33076;SDS011;67066;51.964;5.924;2024-03-07T01:57:23;80.18;;;37.70;;
33076;SDS011;67066;51.964;5.924;2024-03-07T01:59:49;76.93;;;37.63;;
33076;SDS011;67066;51.964;5.924;2024-03-07T02:02:16;85.75;;;37.45;;
33076;SDS011;67066;51.964;5.924;2024-03-07T02:04:43;100.40;;;39.70;;
33076;SDS011;67066;51.964;5.924;2024-03-07T02:07:09;73.38;;;38.08;;
33076;SDS011;67066;51.964;5.924;2024-03-07T02:09:37;88.72;;;41.63;;
33076;SDS011;67066;51.964;5.924;2024-03-07T02:12:04;81.95;;;40.40;;
33076;SDS011;67066;51.964;5.924;2024-03-07T02:14:31;74.78;;;37.08;;
33076;SDS011;67066;51.964;5.924;2024-03-07T02:16:57;93.32;;;36.67;;
33076;SDS011;67066;51.964;5.924;2024-03-07T02:19:23;85.15;;;38.53;;
33076;SDS011;67066;51.964;5.924;2024-03-07T02:21:49;98.68;;;41.03;;
33076;SDS011;67066;51.964;5.924;2024-03-07T02:24:15;85.85;;;39.33;;
33076;SDS011;67066;51.964;5.924;2024-03-07T02:26:41;91.93;;;39.92;;
33076;SDS011;67066;51.964;5.924;2024-03-07T02:29:09;89.03;;;38.80;;
33076;SDS011;67066;51.964;5.924;2024-03-07T02:31:36;84.57;;;38.30;;
33076;SDS011;67066;51.964;5.924;2024-03-07T02:34:03;75.43;;;37.53;;
33076;SDS011;67066;51.964;5.924;2024-03-07T02:36:29;83.93;;;38.80;;
33076;SDS011;67066;51.964;5.924;2024-03-07T02:38:56;86.97;;;38.08;;
33076;SDS011;67066;51.964;5.924;2024-03-07T02:41:22;92.13;;;39.05;;
33076;SDS011;67066;51.964;5.924;2024-03-07T02:43:49;92.68;;;40.33;;
33076;SDS011;67066;51.964;5.924;2024-03-07T02:46:15;85.28;;;38.08;;
33076;SDS011;67066;51.964;5.924;2024-03-07T02:48:42;87.45;;;39.95;;
33076;SDS011;67066;51.964;5.924;2024-03-07T02:51:08;87.65;;;39.15;;
33076;SDS011;67066;51.964;5.924;2024-03-07T02:53:34;92.05;;;38.10;;
33076;SDS011;67066;51.964;5.924;2024-03-07T02:56:00;89.45;;;39.22;;
33076;SDS011;67066;51.964;5.924;2024-03-07T02:58:26;84.07;;;38.20;;
33076;SDS011;67066;51.964;5.924;2024-03-07T03:00:58;87.47;;;38.67;;
33076;SDS011;67066;51.964;5.924;2024-03-07T03:03:25;78.18;;;39.33;;
33076;SDS011;67066;51.964;5.924;2024-03-07T03:05:52;85.10;;;38.45;;
33076;SDS011;67066;51.964;5.924;2024-03-07T03:08:18;80.45;;;37.80;;
33076;SDS011;67066;51.964;5.924;2024-03-07T03:10:44;87.03;;;39.60;;
33076;SDS011;67066;51.964;5.924;2024-03-07T03:13:10;75.03;;;37.40;;
33076;SDS011;67066;51.964;5.924;2024-03-07T03:15:36;87.88;;;40.58;;
33076;SDS011;67066;51.964;5.924;2024-03-07T03:18:05;90.03;;;39.38;;
33076;SDS011;67066;51.964;5.924;2024-03-07T03:20:32;73.90;;;36.70;;
33076;SDS011;67066;51.964;5.924;2024-03-07T03:23:04;72.82;;;37.50;;
33076;SDS011;67066;51.964;5.924;2024-03-07T03:25:31;75.72;;;38.53;;
33076;SDS011;67066;51.964;5.924;2024-03-07T03:28:04;87.10;;;38.80;;
33076;SDS011;67066;51.964;5.924;2024-03-07T03:30:30;78.57;;;39.42;;
33076;SDS011;67066;51.964;5.924;2024-03-07T03:32:58;86.57;;;38.78;;
33076;SDS011;67066;51.964;5.924;2024-03-07T03:35:25;88.18;;;36.58;;
33076;SDS011;67066;51.964;5.924;2024-03-07T03:37:51;78.45;;;36.15;;
33076;SDS011;67066;51.964;5.924;2024-03-07T03:40:17;76.05;;;38.17;;
33076;SDS011;67066;51.964;5.924;2024-03-07T03:42:43;77.55;;;36.22;;
33076;SDS011;67066;51.964;5.924;2024-03-07T03:45:09;78.53;;;38.45;;
33076;SDS011;67066;51.964;5.924;2024-03-07T03:47:40;76.43;;;35.70;;
33076;SDS011;67066;51.964;5.924;2024-03-07T03:50:07;89.38;;;35.75;;
33076;SDS011;67066;51.964;5.924;2024-03-07T03:52:34;86.78;;;37.95;;
33076;SDS011;67066;51.964;5.924;2024-03-07T03:55:01;93.68;;;39.70;;
33076;SDS011;67066;51.964;5.924;2024-03-07T03:57:28;82.85;;;39.55;;
33076;SDS011;67066;51.964;5.924;2024-03-07T03:59:55;75.43;;;39.40;;
33076;SDS011;67066;51.964;5.924;2024-03-07T04:02:21;82.57;;;37.75;;
33076;SDS011;67066;51.964;5.924;2024-03-07T04:04:48;83.13;;;38.47;;
33076;SDS011;67066;51.964;5.924;2024-03-07T04:07:15;73.95;;;34.50;;
33076;SDS011;67066;51.964;5.924;2024-03-07T04:09:47;89.35;;;38.72;;
33076;SDS011;67066;51.964;5.924;2024-03-07T04:12:13;77.47;;;37.03;;
33076;SDS011;67066;51.964;5.924;2024-03-07T04:14:40;86.40;;;38.17;;
33076;SDS011;67066;51.964;5.924;2024-03-07T04:17:08;81.82;;;37.85;;
33076;SDS011;67066;51.964;5.924;2024-03-07T04:19:38;78.07;;;35.65;;
33076;SDS011;67066;51.964;5.924;2024-03-07T04:22:05;82.57;;;38.00;;
33076;SDS011;67066;51.964;5.924;2024-03-07T04:24:36;79.55;;;37.33;;
33076;SDS011;67066;51.964;5.924;2024-03-07T04:27:03;76.15;;;36.97;;
33076;SDS011;67066;51.964;5.924;2024-03-07T04:29:31;81.10;;;37.50;;
33076;SDS011;67066;51.964;5.924;2024-03-07T04:32:00;79.55;;;36.20;;
33076;SDS011;67066;51.964;5.924;2024-03-07T04:34:27;77.00;;;35.92;;
33076;SDS011;67066;51.964;5.924;2024-03-07T04:37:05;87.93;;;38.83;;
33076;SDS011;67066;51.964;5.924;2024-03-07T04:39:31;76.07;;;34.85;;
33076;SDS011;67066;51.964;5.924;2024-03-07T04:42:01;76.07;;;36.63;;
33076;SDS011;67066;51.964;5.924;2024-03-07T04:44:28;81.68;;;38.85;;
33076;SDS011;67066;51.964;5.924;2024-03-07T04:46:55;83.55;;;39.85;;
33076;SDS011;67066;51.964;5.924;2024-03-07T04:49:26;84.20;;;37.72;;
33076;SDS011;67066;51.964;5.924;2024-03-07T04:51:54;84.38;;;37.92;;
33076;SDS011;67066;51.964;5.924;2024-03-07T04:54:21;80.60;;;37.15;;
33076;SDS011;67066;51.964;5.924;2024-03-07T04:56:49;80.95;;;35.75;;
33076;SDS011;67066;51.964;5.924;2024-03-07T04:59:16;75.95;;;34.63;;
33076;SDS011;67066;51.964;5.924;2024-03-07T05:01:44;82.28;;;35.38;;
33076;SDS011;67066;51.964;5.924;2024-03-07T05:04:11;80.05;;;38.47;;
33076;SDS011;67066;51.964;5.924;2024-03-07T05:06:38;71.22;;;37.08;;
33076;SDS011;67066;51.964;5.924;2024-03-07T05:09:06;72.35;;;34.47;;
33076;SDS011;67066;51.964;5.924;2024-03-07T05:11:34;72.45;;;34.63;;
33076;SDS011;67066;51.964;5.924;2024-03-07T05:14:02;71.35;;;36.10;;
33076;SDS011;67066;51.964;5.924;2024-03-07T05:16:29;76.72;;;35.58;;
33076;SDS011;67066;51.964;5.924;2024-03-07T05:18:57;86.10;;;39.42;;
33076;SDS011;67066;51.964;5.924;2024-03-07T05:21:26;78.85;;;37.80;;
33076;SDS011;67066;51.964;5.924;2024-03-07T05:23:59;84.63;;;39.00;;
33076;SDS011;67066;51.964;5.924;2024-03-07T05:26:29;86.63;;;36.28;;
33076;SDS011;67066;51.964;5.924;2024-03-07T05:29:05;74.03;;;36.25;;
33076;SDS011;67066;51.964;5.924;2024-03-07T05:31:37;73.25;;;34.70;;
33076;SDS011;67066;51.964;5.924;2024-03-07T05:34:04;85.35;;;40.05;;
33076;SDS011;67066;51.964;5.924;2024-03-07T05:36:36;82.13;;;35.40;;
33076;SDS011;67066;51.964;5.924;2024-03-07T05:39:13;71.25;;;34.47;;
33076;SDS011;67066;51.964;5.924;2024-03-07T05:41:43;79.88;;;38.03;;
33076;SDS011;67066;51.964;5.924;2024-03-07T05:44:13;74.53;;;36.35;;
33076;SDS011;67066;51.964;5.924;2024-03-07T05:46:41;76.00;;;35.75;;
33076;SDS011;67066;51.964;5.924;2024-03-07T05:49:11;74.72;;;38.35;;
33076;SDS011;67066;51.964;5.924;2024-03-07T05:51:38;87.75;;;35.83;;
33076;SDS011;67066;51.964;5.924;2024-03-07T05:54:04;86.00;;;32.67;;
33076;SDS011;67066;51.964;5.924;2024-03-07T05:56:32;69.88;;;33.28;;
33076;SDS011;67066;51.964;5.924;2024-03-07T05:59:04;90.28;;;37.38;;
33076;SDS011;67066;51.964;5.924;2024-03-07T06:01:35;75.95;;;34.72;;
33076;SDS011;67066;51.964;5.924;2024-03-07T06:04:02;68.78;;;35.38;;
33076;SDS011;67066;51.964;5.924;2024-03-07T06:06:33;75.10;;;33.45;;
33076;SDS011;67066;51.964;5.924;2024-03-07T06:09:03;73.25;;;32.38;;
33076;SDS011;67066;51.964;5.924;2024-03-07T06:11:36;69.60;;;34.90;;
33076;SDS011;67066;51.964;5.924;2024-03-07T06:14:03;66.80;;;33.70;;
33076;SDS011;67066;51.964;5.924;2024-03-07T06:16:30;65.32;;;33.25;;
33076;SDS011;67066;51.964;5.924;2024-03-07T06:19:06;73.45;;;33.58;;
33076;SDS011;67066;51.964;5.924;2024-03-07T06:21:34;67.50;;;32.60;;
33076;SDS011;67066;51.964;5.924;2024-03-07T06:24:01;70.47;;;34.00;;
33076;SDS011;67066;51.964;5.924;2024-03-07T06:26:32;65.90;;;32.55;;
33076;SDS011;67066;51.964;5.924;2024-03-07T06:29:13;64.22;;;31.30;;
33076;SDS011;67066;51.964;5.924;2024-03-07T06:31:43;72.53;;;35.00;;
33076;SDS011;67066;51.964;5.924;2024-03-07T06:34:13;75.82;;;32.28;;
33076;SDS011;67066;51.964;5.924;2024-03-07T06:36:39;76.18;;;35.95;;
33076;SDS011;67066;51.964;5.924;2024-03-07T06:39:08;70.35;;;35.00;;
33076;SDS011;67066;51.964;5.924;2024-03-07T06:41:38;62.72;;;31.65;;
33076;SDS011;67066;51.964;5.924;2024-03-07T06:44:04;73.35;;;34.47;;
33076;SDS011;67066;51.964;5.924;2024-03-07T06:46:31;59.00;;;30.48;;
33076;SDS011;67066;51.964;5.924;2024-03-07T06:49:00;68.30;;;32.55;;
33076;SDS011;67066;51.964;5.924;2024-03-07T06:51:26;59.78;;;31.52;;
33076;SDS011;67066;51.964;5.924;2024-03-07T06:53:52;69.43;;;35.10;;
33076;SDS011;67066;51.964;5.924;2024-03-07T06:56:21;70.85;;;31.63;;
33076;SDS011;67066;51.964;5.924;2024-03-07T06:58:49;65.75;;;31.65;;
33076;SDS011;67066;51.964;5.924;2024-03-07T07:01:15;67.75;;;31.23;;
33076;SDS011;67066;51.964;5.924;2024-03-07T07:03:41;60.75;;;30.40;;
33076;SDS011;67066;51.964;5.924;2024-03-07T07:06:11;66.28;;;33.22;;
33076;SDS011;67066;51.964;5.924;2024-03-07T07:08:37;59.13;;;29.92;;
33076;SDS011;67066;51.964;5.924;2024-03-07T07:11:03;59.13;;;30.55;;
33076;SDS011;67066;51.964;5.924;2024-03-07T07:13:30;58.25;;;31.48;;
33076;SDS011;67066;51.964;5.924;2024-03-07T07:15:56;62.35;;;31.58;;
33076;SDS011;67066;51.964;5.924;2024-03-07T07:18:22;58.42;;;29.13;;
33076;SDS011;67066;51.964;5.924;2024-03-07T07:20:49;58.90;;;30.75;;
33076;SDS011;67066;51.964;5.924;2024-03-07T07:23:18;53.92;;;28.48;;
33076;SDS011;67066;51.964;5.924;2024-03-07T07:25:45;54.22;;;28.25;;
33076;SDS011;67066;51.964;5.924;2024-03-07T07:28:12;58.65;;;28.35;;
33076;SDS011;67066;51.964;5.924;2024-03-07T07:30:38;59.78;;;29.30;;
33076;SDS011;67066;51.964;5.924;2024-03-07T07:33:04;57.97;;;28.70;;
33076;SDS011;67066;51.964;5.924;2024-03-07T07:35:30;59.08;;;30.25;;
33076;SDS011;67066;51.964;5.924;2024-03-07T07:37:58;48.63;;;23.60;;
33076;SDS011;67066;51.964;5.924;2024-03-07T07:40:25;47.97;;;26.10;;
33076;SDS011;67066;51.964;5.924;2024-03-07T07:42:52;47.00;;;24.25;;
33076;SDS011;67066;51.964;5.924;2024-03-07T07:45:21;55.35;;;30.17;;
33076;SDS011;67066;51.964;5.924;2024-03-07T07:47:48;61.10;;;24.73;;
33076;SDS011;67066;51.964;5.924;2024-03-07T07:50:20;55.22;;;28.25;;
33076;SDS011;67066;51.964;5.924;2024-03-07T07:52:51;52.75;;;28.83;;
33076;SDS011;67066;51.964;5.924;2024-03-07T07:57:49;49.85;;;26.67;;
33076;SDS011;67066;51.964;5.924;2024-03-07T08:00:19;52.78;;;24.92;;
33076;SDS011;67066;51.964;5.924;2024-03-07T08:05:20;50.03;;;26.13;;
33076;SDS011;67066;51.964;5.924;2024-03-07T08:07:52;49.58;;;28.00;;
33076;SDS011;67066;51.964;5.924;2024-03-07T08:10:20;50.17;;;26.65;;
33076;SDS011;67066;51.964;5.924;2024-03-07T08:12:48;52.70;;;26.92;;
33076;SDS011;67066;51.964;5.924;2024-03-07T08:15:15;50.80;;;26.33;;
33076;SDS011;67066;51.964;5.924;2024-03-07T08:17:44;50.33;;;24.67;;
33076;SDS011;67066;51.964;5.924;2024-03-07T08:20:13;46.65;;;23.70;;
33076;SDS011;67066;51.964;5.924;2024-03-07T08:22:42;52.97;;;25.65;;
33076;SDS011;67066;51.964;5.924;2024-03-07T08:25:09;36.40;;;20.75;;
33076;SDS011;67066;51.964;5.924;2024-03-07T08:27:36;50.97;;;23.95;;
33076;SDS011;67066;51.964;5.924;2024-03-07T08:30:03;41.25;;;23.95;;
33076;SDS011;67066;51.964;5.924;2024-03-07T08:32:32;48.53;;;23.17;;
33076;SDS011;67066;51.964;5.924;2024-03-07T08:35:03;48.10;;;21.52;;
33076;SDS011;67066;51.964;5.924;2024-03-07T08:37:33;40.53;;;22.05;;
33076;SDS011;67066;51.964;5.924;2024-03-07T08:40:00;45.83;;;22.95;;
33076;SDS011;67066;51.964;5.924;2024-03-07T08:42:33;40.25;;;21.77;;
33076;SDS011;67066;51.964;5.924;2024-03-07T08:45:02;45.95;;;23.55;;
33076;SDS011;67066;51.964;5.924;2024-03-07T08:47:30;39.13;;;22.58;;
33076;SDS011;67066;51.964;5.924;2024-03-07T08:50:01;38.50;;;22.13;;
33076;SDS011;67066;51.964;5.924;2024-03-07T08:52:31;37.15;;;22.63;;
33076;SDS011;67066;51.964;5.924;2024-03-07T08:54:57;48.63;;;23.83;;
33076;SDS011;67066;51.964;5.924;2024-03-07T08:57:23;40.35;;;21.27;;
33076;SDS011;67066;51.964;5.924;2024-03-07T08:59:49;38.55;;;22.42;;
33076;SDS011;67066;51.964;5.924;2024-03-07T09:02:16;45.72;;;20.70;;
33076;SDS011;67066;51.964;5.924;2024-03-07T09:04:42;40.30;;;22.23;;
33076;SDS011;67066;51.964;5.924;2024-03-07T09:07:08;36.08;;;19.15;;
33076;SDS011;67066;51.964;5.924;2024-03-07T09:09:34;37.50;;;19.10;;
33076;SDS011;67066;51.964;5.924;2024-03-07T09:12:01;35.97;;;20.75;;
33076;SDS011;67066;51.964;5.924;2024-03-07T09:14:28;35.10;;;19.05;;
33076;SDS011;67066;51.964;5.924;2024-03-07T09:16:54;37.05;;;20.20;;
33076;SDS011;67066;51.964;5.924;2024-03-07T09:19:20;36.05;;;19.38;;
33076;SDS011;67066;51.964;5.924;2024-03-07T09:21:53;34.17;;;20.23;;
33076;SDS011;67066;51.964;5.924;2024-03-07T09:24:19;32.70;;;19.65;;
33076;SDS011;67066;51.964;5.924;2024-03-07T09:26:52;33.90;;;20.42;;
33076;SDS011;67066;51.964;5.924;2024-03-07T09:29:18;39.72;;;19.90;;
33076;SDS011;67066;51.964;5.924;2024-03-07T09:31:45;39.42;;;20.05;;
33076;SDS011;67066;51.964;5.924;2024-03-07T09:34:14;31.95;;;18.13;;
33076;SDS011;67066;51.964;5.924;2024-03-07T09:36:41;31.52;;;18.98;;
33076;SDS011;67066;51.964;5.924;2024-03-07T09:39:08;36.03;;;19.05;;
33076;SDS011;67066;51.964;5.924;2024-03-07T09:41:34;29.65;;;17.30;;
33076;SDS011;67066;51.964;5.924;2024-03-07T09:44:01;30.85;;;16.90;;
33076;SDS011;67066;51.964;5.924;2024-03-07T09:46:29;32.08;;;19.67;;
33076;SDS011;67066;51.964;5.924;2024-03-07T09:48:56;38.53;;;19.38;;
33076;SDS011;67066;51.964;5.924;2024-03-07T09:51:24;35.17;;;20.10;;
33076;SDS011;67066;51.964;5.924;2024-03-07T09:53:51;33.88;;;19.50;;
33076;SDS011;67066;51.964;5.924;2024-03-07T09:56:21;33.55;;;18.48;;
33076;SDS011;67066;51.964;5.924;2024-03-07T09:58:48;34.03;;;18.65;;
33076;SDS011;67066;51.964;5.924;2024-03-07T10:01:19;33.42;;;20.05;;
33076;SDS011;67066;51.964;5.924;2024-03-07T10:03:47;33.78;;;17.17;;
33076;SDS011;67066;51.964;5.924;2024-03-07T10:06:14;31.58;;;18.10;;
33076;SDS011;67066;51.964;5.924;2024-03-07T10:08:41;35.60;;;20.13;;
33076;SDS011;67066;51.964;5.924;2024-03-07T10:11:08;28.88;;;18.35;;
33076;SDS011;67066;51.964;5.924;2024-03-07T10:13:34;30.23;;;18.45;;
33076;SDS011;67066;51.964;5.924;2024-03-07T10:16:01;40.63;;;19.58;;
33076;SDS011;67066;51.964;5.924;2024-03-07T10:18:27;35.38;;;19.00;;
33076;SDS011;67066;51.964;5.924;2024-03-07T10:20:54;33.47;;;17.48;;
33076;SDS011;67066;51.964;5.924;2024-03-07T10:23:21;33.50;;;17.33;;
33076;SDS011;67066;51.964;5.924;2024-03-07T10:25:48;36.33;;;20.42;;
33076;SDS011;67066;51.964;5.924;2024-03-07T10:28:18;38.20;;;19.92;;
33076;SDS011;67066;51.964;5.924;2024-03-07T10:30:45;34.83;;;18.30;;
33076;SDS011;67066;51.964;5.924;2024-03-07T10:33:13;32.53;;;19.63;;
33076;SDS011;67066;51.964;5.924;2024-03-07T10:35:39;34.50;;;19.92;;
33076;SDS011;67066;51.964;5.924;2024-03-07T10:38:05;31.75;;;17.83;;
33076;SDS011;67066;51.964;5.924;2024-03-07T10:40:32;33.92;;;18.42;;
33076;SDS011;67066;51.964;5.924;2024-03-07T10:43:01;34.17;;;18.92;;
33076;SDS011;67066;51.964;5.924;2024-03-07T10:45:37;30.67;;;18.48;;
33076;SDS011;67066;51.964;5.924;2024-03-07T10:48:08;32.70;;;18.55;;
33076;SDS011;67066;51.964;5.924;2024-03-07T11:04:41;37.40;;;17.98;;
33076;SDS011;67066;51.964;5.924;2024-03-07T11:07:08;37.10;;;20.30;;
33076;SDS011;67066;51.964;5.924;2024-03-07T11:09:36;36.97;;;17.83;;
33076;SDS011;67066;51.964;5.924;2024-03-07T11:12:03;33.85;;;17.92;;
33076;SDS011;67066;51.964;5.924;2024-03-07T11:14:30;29.55;;;16.23;;
33076;SDS011;67066;51.964;5.924;2024-03-07T11:16:57;34.42;;;18.25;;
33076;SDS011;67066;51.964;5.924;2024-03-07T11:19:24;31.67;;;16.98;;
33076;SDS011;67066;51.964;5.924;2024-03-07T11:21:53;31.67;;;17.70;;
33076;SDS011;67066;51.964;5.924;2024-03-07T11:24:24;36.60;;;17.63;;
33076;SDS011;67066;51.964;5.924;2024-03-07T11:26:52;33.38;;;16.33;;
33076;SDS011;67066;51.964;5.924;2024-03-07T11:32:11;36.47;;;17.48;;
33076;SDS011;67066;51.964;5.924;2024-03-07T11:34:39;41.22;;;20.13;;
33076;SDS011;67066;51.964;5.924;2024-03-07T11:37:18;35.92;;;20.05;;
33076;SDS011;67066;51.964;5.924;2024-03-07T11:39:48;32.58;;;16.73;;
33076;SDS011;67066;51.964;5.924;2024-03-07T11:42:26;28.40;;;15.85;;
33076;SDS011;67066;51.964;5.924;2024-03-07T11:44:54;34.13;;;18.58;;
33076;SDS011;67066;51.964;5.924;2024-03-07T11:47:34;31.65;;;16.70;;
33076;SDS011;67066;51.964;5.924;2024-03-07T11:50:04;33.83;;;16.08;;
33076;SDS011;67066;51.964;5.924;2024-03-07T11:52:34;34.03;;;17.40;;
33076;SDS011;67066;51.964;5.924;2024-03-07T11:55:02;30.27;;;17.50;;
33076;SDS011;67066;51.964;5.924;2024-03-07T11:57:31;29.98;;;16.42;;
33076;SDS011;67066;51.964;5.924;2024-03-07T12:00:00;34.67;;;18.50;;
33076;SDS011;67066;51.964;5.924;2024-03-07T12:02:33;32.58;;;17.48;;
33076;SDS011;67066;51.964;5.924;2024-03-07T12:04:59;30.38;;;16.33;;
33076;SDS011;67066;51.964;5.924;2024-03-07T12:07:26;32.42;;;16.58;;
33076;SDS011;67066;51.964;5.924;2024-03-07T12:09:52;30.42;;;15.63;;
33076;SDS011;67066;51.964;5.924;2024-03-07T12:12:21;27.38;;;17.50;;
33076;SDS011;67066;51.964;5.924;2024-03-07T12:14:49;30.27;;;17.73;;
33076;SDS011;67066;51.964;5.924;2024-03-07T12:17:17;27.30;;;16.75;;
33076;SDS011;67066;51.964;5.924;2024-03-07T12:19:44;23.27;;;14.82;;
33076;SDS011;67066;51.964;5.924;2024-03-07T12:22:12;25.85;;;15.00;;
33076;SDS011;67066;51.964;5.924;2024-03-07T12:24:39;25.60;;;15.25;;
33076;SDS011;67066;51.964;5.924;2024-03-07T12:27:08;27.25;;;16.10;;
33076;SDS011;67066;51.964;5.924;2024-03-07T12:29:36;27.77;;;14.57;;
33076;SDS011;67066;51.964;5.924;2024-03-07T12:32:06;27.23;;;16.50;;
33076;SDS011;67066;51.964;5.924;2024-03-07T12:34:44;28.13;;;17.45;;
33076;SDS011;67066;51.964;5.924;2024-03-07T12:37:11;28.58;;;16.90;;
33076;SDS011;67066;51.964;5.924;2024-03-07T12:39:44;27.58;;;15.55;;
33076;SDS011;67066;51.964;5.924;2024-03-07T12:42:24;28.63;;;17.40;;
33076;SDS011;67066;51.964;5.924;2024-03-07T12:44:50;30.00;;;16.70;;
33076;SDS011;67066;51.964;5.924;2024-03-07T12:47:16;31.95;;;17.05;;
33076;SDS011;67066;51.964;5.924;2024-03-07T12:49:43;22.10;;;13.75;;
33076;SDS011;67066;51.964;5.924;2024-03-07T12:52:10;28.65;;;17.65;;
33076;SDS011;67066;51.964;5.924;2024-03-07T12:54:40;32.65;;;17.30;;
33076;SDS011;67066;51.964;5.924;2024-03-07T12:57:11;32.33;;;18.42;;
33076;SDS011;67066;51.964;5.924;2024-03-07T12:59:40;30.27;;;17.30;;
33076;SDS011;67066;51.964;5.924;2024-03-07T13:02:10;31.35;;;18.73;;
33076;SDS011;67066;51.964;5.924;2024-03-07T13:04:37;26.50;;;18.20;;
33076;SDS011;67066;51.964;5.924;2024-03-07T13:07:04;29.60;;;16.50;;
33076;SDS011;67066;51.964;5.924;2024-03-07T13:09:31;35.60;;;19.90;;
33076;SDS011;67066;51.964;5.924;2024-03-07T13:12:00;37.45;;;18.77;;
33076;SDS011;67066;51.964;5.924;2024-03-07T13:14:31;36.33;;;18.42;;
33076;SDS011;67066;51.964;5.924;2024-03-07T13:17:04;32.30;;;17.25;;
33076;SDS011;67066;51.964;5.924;2024-03-07T13:19:31;35.30;;;19.00;;
33076;SDS011;67066;51.964;5.924;2024-03-07T13:21:58;42.10;;;20.65;;
33076;SDS011;67066;51.964;5.924;2024-03-07T13:24:25;28.08;;;18.67;;
33076;SDS011;67066;51.964;5.924;2024-03-07T13:26:53;35.05;;;17.92;;
33076;SDS011;67066;51.964;5.924;2024-03-07T13:29:19;26.52;;;16.70;;
33076;SDS011;67066;51.964;5.924;2024-03-07T13:31:52;36.58;;;19.83;;
33076;SDS011;67066;51.964;5.924;2024-03-07T13:34:20;31.80;;;18.33;;
33076;SDS011;67066;51.964;5.924;2024-03-07T13:36:46;34.17;;;18.05;;
33076;SDS011;67066;51.964;5.924;2024-03-07T13:39:12;27.10;;;15.77;;
33076;SDS011;67066;51.964;5.924;2024-03-07T13:41:42;31.63;;;17.90;;
33076;SDS011;67066;51.964;5.924;2024-03-07T13:46:40;29.25;;;16.10;;
33076;SDS011;67066;51.964;5.924;2024-03-07T13:49:13;28.47;;;17.20;;
33076;SDS011;67066;51.964;5.924;2024-03-07T13:51:39;25.98;;;15.23;;
33076;SDS011;67066;51.964;5.924;2024-03-07T13:54:24;29.05;;;17.75;;
33076;SDS011;67066;51.964;5.924;2024-03-07T13:57:46;25.98;;;16.40;;
33076;SDS011;67066;51.964;5.924;2024-03-07T13:59:57;31.48;;;17.17;;
33076;SDS011;67066;51.964;5.924;2024-03-07T14:02:47;23.70;;;15.13;;
33076;SDS011;67066;51.964;5.924;2024-03-07T14:20:19;25.52;;;14.02;;
33076;SDS011;67066;51.964;5.924;2024-03-07T14:28:42;30.00;;;15.95;;
33076;SDS011;67066;51.964;5.924;2024-03-07T14:31:11;22.58;;;13.75;;
33076;SDS011;67066;51.964;5.924;2024-03-07T14:33:47;25.88;;;14.65;;
33076;SDS011;67066;51.964;5.924;2024-03-07T14:36:52;25.05;;;13.48;;
33076;SDS011;67066;51.964;5.924;2024-03-07T14:39:24;32.03;;;16.60;;
33076;SDS011;67066;51.964;5.924;2024-03-07T14:42:06;28.95;;;15.63;;
33076;SDS011;67066;51.964;5.924;2024-03-07T14:44:36;30.40;;;15.57;;
33076;SDS011;67066;51.964;5.924;2024-03-07T14:47:05;26.88;;;15.88;;
33076;SDS011;67066;51.964;5.924;2024-03-07T14:49:33;28.85;;;16.95;;
33076;SDS011;67066;51.964;5.924;2024-03-07T14:52:00;26.67;;;13.63;;
33076;SDS011;67066;51.964;5.924;2024-03-07T14:54:28;24.05;;;14.57;;
33076;SDS011;67066;51.964;5.924;2024-03-07T14:56:55;28.23;;;15.30;;
33076;SDS011;67066;51.964;5.924;2024-03-07T14:59:22;28.48;;;14.98;;
33076;SDS011;67066;51.964;5.924;2024-03-07T15:01:48;25.30;;;14.93;;
33076;SDS011;67066;51.964;5.924;2024-03-07T15:04:14;25.40;;;14.13;;
33076;SDS011;67066;51.964;5.924;2024-03-07T15:06:41;24.00;;;13.55;;
33076;SDS011;67066;51.964;5.924;2024-03-07T15:09:11;22.80;;;13.02;;
33076;SDS011;67066;51.964;5.924;2024-03-07T15:11:39;29.65;;;14.90;;
33076;SDS011;67066;51.964;5.924;2024-03-07T15:14:08;24.75;;;12.77;;